PWSweather.com
Personal Weather Stations
Station Observations
WATERF01
WaterfordIE

WaterfordIE

Lat: 52.2412507, Lon: -7.1414691

Elevation: 65

Station Type: Davis Vantage Vue

Latest ConditionsUpdated 7:40:01 PM GMT Tuesday, Jun 30, 2015
Currently Today's Max Today's Min Today's Average
Temperature 66.7°F19.3°C 69.6°F20.9°C 58.5°F14.7°C 63.2°F17.3°C
Dew Point 61.4°F16.3°C 62.6°F17.0°C 57.9°F14.4°C 60.3°F15.7°C
Winds 3.5 mph SSE5.6 kmh SSE 15.0 mph SE24.1 kmh SE - 8.9 mph 14.3 kmh
Wind Gusts 5.8 mph9.3 kmh 21.9 mph35.2 kmh - -
Humidity 83% 98% 76% 91%
Pressure 29.85 in1010.8 mb 30.02 in1016.6 mb 29.84 in1010.5 mb -
Precipitation - 0.03 in0.8 mm - -
Hour Temp Dew Point Humidity Winds Wind Gusts Pressure Precip Precip Rate Daily Precip Total
07:40 PM 66.7°F19.3°C 61.4°F16.3°C 83% 3.5 mph SSE5.6 kmh SSE 5.8 mph9.3 kmh 29.85 in1010.8 mb - 0.00 in0.0 mm 0.03 in0.8 mm
07:30 PM 66.9°F19.4°C 61.6°F16.4°C 83% 4.6 mph S7.4 kmh S 5.8 mph9.3 kmh 29.85 in1010.8 mb - 0.00 in0.0 mm 0.03 in0.8 mm
07:20 PM 66.9°F19.4°C 61.3°F16.3°C 82% 4.6 mph SSW7.4 kmh SSW 8.1 mph13.0 kmh 29.85 in1010.8 mb - 0.00 in0.0 mm 0.03 in0.8 mm
07:10 PM 67.1°F19.5°C 61.1°F16.2°C 81% 4.6 mph SSW7.4 kmh SSW 6.9 mph11.1 kmh 29.85 in1010.8 mb - 0.00 in0.0 mm 0.03 in0.8 mm
07:00 PM 67.2°F19.6°C 61.2°F16.2°C 81% 5.8 mph SSW9.3 kmh SSW 8.1 mph13.0 kmh 29.84 in1010.5 mb - 0.00 in0.0 mm 0.03 in0.8 mm
06:50 PM 67.3°F19.6°C 61.3°F16.3°C 81% 8.1 mph SSE13.0 kmh SSE 11.5 mph18.5 kmh 29.84 in1010.5 mb - 0.00 in0.0 mm 0.03 in0.8 mm
06:40 PM 67.6°F19.8°C 61.6°F16.4°C 81% 8.1 mph SSE13.0 kmh SSE 11.5 mph18.5 kmh 29.84 in1010.5 mb - 0.00 in0.0 mm 0.03 in0.8 mm
06:30 PM 67.9°F19.9°C 61.5°F16.4°C 80% 5.8 mph SSW9.3 kmh SSW 8.1 mph13.0 kmh 29.85 in1010.8 mb - 0.00 in0.0 mm 0.03 in0.8 mm
06:20 PM 68.1°F20.1°C 61.7°F16.5°C 80% 8.1 mph SSW13.0 kmh SSW 11.5 mph18.5 kmh 29.85 in1010.8 mb - 0.00 in0.0 mm 0.03 in0.8 mm
06:10 PM 68.3°F20.2°C 61.5°F16.4°C 79% 6.9 mph S11.1 kmh S 9.2 mph14.8 kmh 29.85 in1010.8 mb - 0.00 in0.0 mm 0.03 in0.8 mm
06:00 PM 68.8°F20.4°C 62.0°F16.7°C 79% 6.9 mph S11.1 kmh S 11.5 mph18.5 kmh 29.85 in1010.8 mb - 0.00 in0.0 mm 0.03 in0.8 mm
05:50 PM 68.6°F20.3°C 61.5°F16.4°C 78% 9.2 mph SW14.8 kmh SW 11.5 mph18.5 kmh 29.85 in1010.8 mb - 0.00 in0.0 mm 0.03 in0.8 mm
05:40 PM 69.5°F20.8°C 61.6°F16.4°C 76% 8.1 mph SSW13.0 kmh SSW 11.5 mph18.5 kmh 29.86 in1011.2 mb - 0.00 in0.0 mm 0.03 in0.8 mm
05:30 PM 69.4°F20.8°C 61.9°F16.6°C 77% 8.1 mph SSW13.0 kmh SSW 11.5 mph18.5 kmh 29.86 in1011.2 mb - 0.00 in0.0 mm 0.03 in0.8 mm
05:20 PM 69.6°F20.9°C 62.4°F16.9°C 78% 8.1 mph SW13.0 kmh SW 11.5 mph18.5 kmh 29.86 in1011.2 mb - 0.00 in0.0 mm 0.03 in0.8 mm
05:10 PM 69.3°F20.7°C 62.1°F16.7°C 78% 6.9 mph S11.1 kmh S 11.5 mph18.5 kmh 29.87 in1011.5 mb - 0.00 in0.0 mm 0.03 in0.8 mm
05:00 PM 69.2°F20.7°C 62.0°F16.7°C 78% 8.1 mph S13.0 kmh S 11.5 mph18.5 kmh 29.87 in1011.5 mb - 0.00 in0.0 mm 0.03 in0.8 mm
04:50 PM 69.0°F20.6°C 61.9°F16.6°C 78% 8.1 mph SSW13.0 kmh SSW 12.7 mph20.4 kmh 29.87 in1011.5 mb - 0.00 in0.0 mm 0.03 in0.8 mm
04:40 PM 68.6°F20.3°C 61.8°F16.6°C 79% 9.2 mph S14.8 kmh S 13.8 mph22.2 kmh 29.87 in1011.5 mb - 0.00 in0.0 mm 0.03 in0.8 mm
04:30 PM 68.6°F20.3°C 62.2°F16.8°C 80% 9.2 mph S14.8 kmh S 11.5 mph18.5 kmh 29.87 in1011.5 mb - 0.00 in0.0 mm 0.03 in0.8 mm
04:20 PM 68.3°F20.2°C 61.9°F16.6°C 80% 9.2 mph S14.8 kmh S 13.8 mph22.2 kmh 29.88 in1011.9 mb - 0.00 in0.0 mm 0.03 in0.8 mm
04:10 PM 68.5°F20.3°C 61.7°F16.5°C 79% 9.2 mph S14.8 kmh S 13.8 mph22.2 kmh 29.88 in1011.9 mb - 0.00 in0.0 mm 0.03 in0.8 mm
04:00 PM 68.3°F20.2°C 61.5°F16.4°C 79% 8.1 mph SSW13.0 kmh SSW 11.5 mph18.5 kmh 29.89 in1012.2 mb - 0.00 in0.0 mm 0.03 in0.8 mm
03:50 PM 68.6°F20.3°C 62.2°F16.8°C 80% 10.4 mph SSW16.7 kmh SSW 16.1 mph25.9 kmh 29.89 in1012.2 mb - 0.00 in0.0 mm 0.03 in0.8 mm
03:40 PM 68.6°F20.3°C 61.5°F16.4°C 78% 9.2 mph S14.8 kmh S 13.8 mph22.2 kmh 29.88 in1011.9 mb - 0.00 in0.0 mm 0.03 in0.8 mm
03:30 PM 68.5°F20.3°C 62.1°F16.7°C 80% 9.2 mph S14.8 kmh S 13.8 mph22.2 kmh 29.89 in1012.2 mb - 0.00 in0.0 mm 0.03 in0.8 mm
03:20 PM 68.6°F20.3°C 62.2°F16.8°C 80% 8.1 mph S13.0 kmh S 11.5 mph18.5 kmh 29.89 in1012.2 mb - 0.00 in0.0 mm 0.03 in0.8 mm
03:10 PM 68.5°F20.3°C 61.8°F16.6°C 79% 10.4 mph SE16.7 kmh SE 18.4 mph29.6 kmh 29.89 in1012.2 mb - 0.00 in0.0 mm 0.03 in0.8 mm
03:00 PM 68.6°F20.3°C 62.2°F16.8°C 80% 13.8 mph SE22.2 kmh SE 18.4 mph29.6 kmh 29.89 in1012.2 mb - 0.00 in0.0 mm 0.03 in0.8 mm
02:50 PM 67.8°F19.9°C 61.4°F16.3°C 80% 10.4 mph SE16.7 kmh SE 13.8 mph22.2 kmh 29.90 in1012.5 mb - 0.00 in0.0 mm 0.03 in0.8 mm
02:40 PM 67.9°F19.9°C 61.9°F16.6°C 81% 10.4 mph SSE16.7 kmh SSE 15.0 mph24.1 kmh 29.90 in1012.5 mb - 0.00 in0.0 mm 0.03 in0.8 mm
02:30 PM 67.7°F19.8°C 62.0°F16.7°C 82% 9.2 mph S14.8 kmh S 13.8 mph22.2 kmh 29.91 in1012.9 mb - 0.00 in0.0 mm 0.03 in0.8 mm
02:20 PM 67.9°F19.9°C 61.9°F16.6°C 81% 6.9 mph SSE11.1 kmh SSE 12.7 mph20.4 kmh 29.91 in1012.9 mb - 0.00 in0.0 mm 0.03 in0.8 mm
02:10 PM 68.3°F20.2°C 62.6°F17.0°C 82% 10.4 mph S16.7 kmh S 16.1 mph25.9 kmh 29.91 in1012.9 mb - 0.00 in0.0 mm 0.03 in0.8 mm
02:00 PM 67.8°F19.9°C 62.4°F16.9°C 83% 11.5 mph SE18.5 kmh SE 18.4 mph29.6 kmh 29.92 in1013.2 mb - 0.00 in0.0 mm 0.03 in0.8 mm
01:50 PM 67.6°F19.8°C 61.9°F16.6°C 82% 9.2 mph SSW14.8 kmh SSW 13.8 mph22.2 kmh 29.92 in1013.2 mb - 0.00 in0.0 mm 0.03 in0.8 mm
01:40 PM 67.3°F19.6°C 61.6°F16.4°C 82% 13.8 mph SE22.2 kmh SE 19.6 mph31.5 kmh 29.93 in1013.5 mb - 0.00 in0.0 mm 0.03 in0.8 mm
01:30 PM 67.1°F19.5°C 61.8°F16.6°C 83% 10.4 mph SSE16.7 kmh SSE 13.8 mph22.2 kmh 29.93 in1013.5 mb - 0.00 in0.0 mm 0.03 in0.8 mm
01:20 PM 67.1°F19.5°C 62.1°F16.7°C 84% 12.7 mph S20.4 kmh S 18.4 mph29.6 kmh 29.93 in1013.5 mb - 0.00 in0.0 mm 0.03 in0.8 mm
01:10 PM 66.7°F19.3°C 61.7°F16.5°C 84% 10.4 mph S16.7 kmh S 13.8 mph22.2 kmh 29.93 in1013.5 mb - 0.00 in0.0 mm 0.03 in0.8 mm
01:00 PM 66.7°F19.3°C 62.4°F16.9°C 86% 15.0 mph SE24.1 kmh SE 21.9 mph35.2 kmh 29.93 in1013.5 mb - 0.00 in0.0 mm 0.03 in0.8 mm
12:50 PM 66.2°F19.0°C 61.9°F16.6°C 86% 11.5 mph S18.5 kmh S 15.0 mph24.1 kmh 29.94 in1013.9 mb - 0.00 in0.0 mm 0.03 in0.8 mm
12:40 PM 66.4°F19.1°C 62.1°F16.7°C 86% 10.4 mph S16.7 kmh S 15.0 mph24.1 kmh 29.94 in1013.9 mb - 0.00 in0.0 mm 0.03 in0.8 mm
12:30 PM 65.9°F18.8°C 62.2°F16.8°C 88% 12.7 mph SSE20.4 kmh SSE 16.1 mph25.9 kmh 29.93 in1013.5 mb - 0.00 in0.0 mm 0.03 in0.8 mm
12:20 PM 64.9°F18.3°C 61.3°F16.3°C 88% 10.4 mph SE16.7 kmh SE 13.8 mph22.2 kmh 29.94 in1013.9 mb - 0.00 in0.0 mm 0.03 in0.8 mm
12:10 PM 64.4°F18.0°C 61.4°F16.3°C 90% 9.2 mph S14.8 kmh S 13.8 mph22.2 kmh 29.94 in1013.9 mb - 0.00 in0.0 mm 0.03 in0.8 mm
12:00 PM 64.1°F17.8°C 61.1°F16.2°C 90% 13.8 mph S22.2 kmh S 16.1 mph25.9 kmh 29.94 in1013.9 mb - 0.00 in0.0 mm 0.03 in0.8 mm
11:50 AM 64.0°F17.8°C 61.0°F16.1°C 90% 13.8 mph SSE22.2 kmh SSE 20.7 mph33.3 kmh 29.95 in1014.2 mb - 0.00 in0.0 mm 0.03 in0.8 mm
11:40 AM 63.4°F17.4°C 60.7°F15.9°C 91% 13.8 mph SE22.2 kmh SE 19.6 mph31.5 kmh 29.95 in1014.2 mb - 0.00 in0.0 mm 0.03 in0.8 mm
11:30 AM 63.3°F17.4°C 60.9°F16.1°C 92% 11.5 mph S18.5 kmh S 15.0 mph24.1 kmh 29.96 in1014.6 mb - 0.00 in0.0 mm 0.03 in0.8 mm
11:20 AM 62.5°F16.9°C 60.4°F15.8°C 93% 12.7 mph S20.4 kmh S 16.1 mph25.9 kmh 29.96 in1014.6 mb - 0.00 in0.0 mm 0.03 in0.8 mm
11:10 AM 62.0°F16.7°C 60.3°F15.7°C 94% 9.2 mph S14.8 kmh S 13.8 mph22.2 kmh 29.96 in1014.6 mb - 0.00 in0.0 mm 0.03 in0.8 mm
11:00 AM 62.0°F16.7°C 60.3°F15.7°C 94% 9.2 mph S14.8 kmh S 13.8 mph22.2 kmh 29.97 in1014.9 mb - 0.00 in0.0 mm 0.03 in0.8 mm
10:50 AM 62.0°F16.7°C 60.6°F15.9°C 95% 5.8 mph W9.3 kmh W 9.2 mph14.8 kmh 29.98 in1015.2 mb - 0.00 in0.0 mm 0.03 in0.8 mm
10:40 AM 61.8°F16.6°C 60.6°F15.9°C 96% 10.4 mph SSW16.7 kmh SSW 15.0 mph24.1 kmh 29.98 in1015.2 mb - 0.00 in0.0 mm 0.03 in0.8 mm
10:30 AM 61.6°F16.4°C 60.4°F15.8°C 96% 9.2 mph SSW14.8 kmh SSW 13.8 mph22.2 kmh 29.97 in1014.9 mb - 0.00 in0.0 mm 0.03 in0.8 mm
10:20 AM 61.6°F16.4°C 60.7°F15.9°C 97% 8.1 mph SSW13.0 kmh SSW 9.2 mph14.8 kmh 29.97 in1014.9 mb - 0.00 in0.0 mm 0.03 in0.8 mm
10:10 AM 61.1°F16.2°C 60.2°F15.7°C 97% 8.1 mph S13.0 kmh S 12.7 mph20.4 kmh 29.96 in1014.6 mb - 0.00 in0.0 mm 0.03 in0.8 mm
10:00 AM 60.7°F15.9°C 59.8°F15.4°C 97% 9.2 mph SW14.8 kmh SW 15.0 mph24.1 kmh 29.97 in1014.9 mb - 0.00 in0.0 mm 0.03 in0.8 mm
09:50 AM 60.5°F15.8°C 59.7°F15.4°C 97% 9.2 mph SW14.8 kmh SW 12.7 mph20.4 kmh 29.97 in1014.9 mb - 0.00 in0.0 mm 0.03 in0.8 mm
09:40 AM 60.7°F15.9°C 60.1°F15.6°C 98% 10.4 mph SSW16.7 kmh SSW 13.8 mph22.2 kmh 29.97 in1014.9 mb - 0.00 in0.0 mm 0.03 in0.8 mm
09:30 AM 60.6°F15.9°C 60.0°F15.6°C 98% 9.2 mph SSW14.8 kmh SSW 13.8 mph22.2 kmh 29.97 in1014.9 mb - 0.00 in0.0 mm 0.03 in0.8 mm
09:20 AM 60.5°F15.8°C 59.9°F15.5°C 98% 9.2 mph SSW14.8 kmh SSW 15.0 mph24.1 kmh 29.97 in1014.9 mb - 0.00 in0.0 mm 0.03 in0.8 mm
09:10 AM 60.4°F15.8°C 59.8°F15.4°C 98% 10.4 mph S16.7 kmh S 13.8 mph22.2 kmh 29.97 in1014.9 mb - 0.00 in0.0 mm 0.03 in0.8 mm
09:00 AM 60.4°F15.8°C 59.8°F15.4°C 98% 5.8 mph S9.3 kmh S 13.8 mph22.2 kmh 29.97 in1014.9 mb - 0.00 in0.0 mm 0.03 in0.8 mm
08:50 AM 60.1°F15.6°C 59.5°F15.3°C 98% 9.2 mph SSW14.8 kmh SSW 11.5 mph18.5 kmh 29.97 in1014.9 mb - 0.00 in0.0 mm 0.03 in0.8 mm
08:40 AM 59.9°F15.5°C 59.3°F15.2°C 98% 8.1 mph SSW13.0 kmh SSW 11.5 mph18.5 kmh 29.97 in1014.9 mb - 0.00 in0.0 mm 0.03 in0.8 mm
08:30 AM 59.8°F15.4°C 59.2°F15.1°C 98% 10.4 mph SSW16.7 kmh SSW 13.8 mph22.2 kmh 29.98 in1015.2 mb - 0.00 in0.0 mm 0.03 in0.8 mm
08:20 AM 59.6°F15.3°C 59.0°F15.0°C 98% 10.4 mph S16.7 kmh S 13.8 mph22.2 kmh 29.98 in1015.2 mb - 0.00 in0.0 mm 0.03 in0.8 mm
08:10 AM 59.5°F15.3°C 58.9°F14.9°C 98% 8.1 mph SSW13.0 kmh SSW 11.5 mph18.5 kmh 29.98 in1015.2 mb - 0.00 in0.0 mm 0.03 in0.8 mm
08:00 AM 59.6°F15.3°C 59.0°F15.0°C 98% 9.2 mph SSW14.8 kmh SSW 15.0 mph24.1 kmh 29.98 in1015.2 mb - 0.00 in0.0 mm 0.03 in0.8 mm
07:50 AM 59.7°F15.4°C 59.1°F15.1°C 98% 8.1 mph SW13.0 kmh SW 12.7 mph20.4 kmh 29.98 in1015.2 mb - 0.00 in0.0 mm 0.03 in0.8 mm
07:40 AM 59.8°F15.4°C 59.2°F15.1°C 98% 11.5 mph S18.5 kmh S 15.0 mph24.1 kmh 29.98 in1015.2 mb - 0.00 in0.0 mm 0.03 in0.8 mm
07:30 AM 59.7°F15.4°C 59.1°F15.1°C 98% 9.2 mph SW14.8 kmh SW 13.8 mph22.2 kmh 29.98 in1015.2 mb - 0.00 in0.0 mm 0.03 in0.8 mm
07:20 AM 59.5°F15.3°C 58.9°F14.9°C 98% 8.1 mph WSW13.0 kmh WSW 11.5 mph18.5 kmh 29.98 in1015.2 mb - 0.00 in0.0 mm 0.03 in0.8 mm
07:10 AM 59.3°F15.2°C 58.8°F14.9°C 98% 8.1 mph SW13.0 kmh SW 13.8 mph22.2 kmh 29.98 in1015.2 mb - 0.00 in0.0 mm 0.03 in0.8 mm
07:00 AM 59.2°F15.1°C 58.6°F14.8°C 98% 9.2 mph WSW14.8 kmh WSW 13.8 mph22.2 kmh 29.97 in1014.9 mb - 0.00 in0.0 mm 0.03 in0.8 mm
06:50 AM 59.1°F15.1°C 58.5°F14.7°C 98% 8.1 mph SW13.0 kmh SW 12.7 mph20.4 kmh 29.97 in1014.9 mb - 0.00 in0.0 mm 0.03 in0.8 mm
06:40 AM 59.0°F15.0°C 58.4°F14.7°C 98% 8.1 mph WSW13.0 kmh WSW 12.7 mph20.4 kmh 29.98 in1015.2 mb - 0.00 in0.0 mm 0.03 in0.8 mm
06:30 AM 59.0°F15.0°C 58.4°F14.7°C 98% 6.9 mph WNW11.1 kmh WNW 12.7 mph20.4 kmh 29.98 in1015.2 mb - 0.00 in0.0 mm 0.03 in0.8 mm
06:20 AM 59.0°F15.0°C 58.4°F14.7°C 98% 9.2 mph SW14.8 kmh SW 13.8 mph22.2 kmh 29.98 in1015.2 mb - 0.00 in0.0 mm 0.03 in0.8 mm
06:10 AM 58.9°F14.9°C 58.3°F14.6°C 98% 9.2 mph SW14.8 kmh SW 12.7 mph20.4 kmh 29.97 in1014.9 mb - 0.00 in0.0 mm 0.03 in0.8 mm
06:00 AM 58.8°F14.9°C 58.2°F14.6°C 98% 10.4 mph SW16.7 kmh SW 13.8 mph22.2 kmh 29.97 in1014.9 mb - 0.00 in0.0 mm 0.03 in0.8 mm
05:50 AM 58.8°F14.9°C 58.2°F14.6°C 98% 9.2 mph SW14.8 kmh SW 12.7 mph20.4 kmh 29.97 in1014.9 mb - 0.00 in0.0 mm 0.03 in0.8 mm
05:40 AM 58.7°F14.8°C 58.1°F14.5°C 98% 4.6 mph WSW7.4 kmh WSW 8.1 mph13.0 kmh 29.97 in1014.9 mb - 0.00 in0.0 mm 0.03 in0.8 mm
05:30 AM 58.6°F14.8°C 58.0°F14.4°C 98% 8.1 mph NNW13.0 kmh NNW 15.0 mph24.1 kmh 29.97 in1014.9 mb - 0.00 in0.0 mm 0.03 in0.8 mm
05:20 AM 58.6°F14.8°C 58.0°F14.4°C 98% 5.8 mph WSW9.3 kmh WSW 9.2 mph14.8 kmh 29.97 in1014.9 mb - 0.00 in0.0 mm 0.03 in0.8 mm
05:10 AM 58.5°F14.7°C 57.9°F14.4°C 98% 9.2 mph SW14.8 kmh SW 13.8 mph22.2 kmh 29.97 in1014.9 mb - 0.00 in0.0 mm 0.03 in0.8 mm
05:00 AM 58.5°F14.7°C 57.9°F14.4°C 98% 9.2 mph SSW14.8 kmh SSW 13.8 mph22.2 kmh 29.96 in1014.6 mb - 0.00 in0.0 mm 0.03 in0.8 mm
04:50 AM 58.8°F14.9°C 58.3°F14.6°C 98% 5.8 mph SW9.3 kmh SW 11.5 mph18.5 kmh 29.97 in1014.9 mb - 0.00 in0.0 mm 0.03 in0.8 mm
04:40 AM 59.3°F15.2°C 58.7°F14.8°C 98% 8.1 mph S13.0 kmh S 11.5 mph18.5 kmh 29.96 in1014.6 mb - 0.00 in0.0 mm 0.03 in0.8 mm
04:30 AM 59.5°F15.3°C 58.9°F14.9°C 98% 6.9 mph SSW11.1 kmh SSW 11.5 mph18.5 kmh 29.97 in1014.9 mb - 0.00 in0.0 mm 0.03 in0.8 mm
04:20 AM 59.6°F15.3°C 59.0°F15.0°C 98% 8.1 mph SW13.0 kmh SW 11.5 mph18.5 kmh 29.96 in1014.6 mb - 0.00 in0.0 mm 0.03 in0.8 mm
04:10 AM 59.6°F15.3°C 59.0°F15.0°C 98% 9.2 mph SSW14.8 kmh SSW 15.0 mph24.1 kmh 29.96 in1014.6 mb - 0.00 in0.0 mm 0.03 in0.8 mm
04:00 AM 59.7°F15.4°C 59.1°F15.1°C 98% 8.1 mph SW13.0 kmh SW 13.8 mph22.2 kmh 29.96 in1014.6 mb - 0.00 in0.0 mm 0.03 in0.8 mm
03:50 AM 59.8°F15.4°C 59.2°F15.1°C 98% 12.7 mph S20.4 kmh S 19.6 mph31.5 kmh 29.96 in1014.6 mb - 0.00 in0.0 mm 0.03 in0.8 mm
03:40 AM 59.8°F15.4°C 59.2°F15.1°C 98% 8.1 mph S13.0 kmh S 12.7 mph20.4 kmh 29.96 in1014.6 mb - 0.00 in0.0 mm 0.03 in0.8 mm
03:30 AM 59.8°F15.4°C 59.2°F15.1°C 98% 11.5 mph SW18.5 kmh SW 16.1 mph25.9 kmh 29.96 in1014.6 mb - 0.00 in0.0 mm 0.03 in0.8 mm
03:20 AM 59.7°F15.4°C 58.9°F14.9°C 97% 6.9 mph SW11.1 kmh SW 9.2 mph14.8 kmh 29.96 in1014.6 mb - 0.00 in0.0 mm 0.03 in0.8 mm
03:10 AM 59.8°F15.4°C 58.9°F14.9°C 97% 8.1 mph SW13.0 kmh SW 13.8 mph22.2 kmh 29.97 in1014.9 mb - 0.00 in0.0 mm 0.03 in0.8 mm
03:00 AM 59.8°F15.4°C 58.9°F14.9°C 97% 9.2 mph S14.8 kmh S 11.5 mph18.5 kmh 29.97 in1014.9 mb - 0.00 in0.0 mm 0.03 in0.8 mm
02:50 AM 59.8°F15.4°C 58.9°F14.9°C 97% 6.9 mph SW11.1 kmh SW 12.7 mph20.4 kmh 29.98 in1015.2 mb - 0.00 in0.0 mm 0.03 in0.8 mm
02:40 AM 59.9°F15.5°C 59.0°F15.0°C 97% 11.5 mph SW18.5 kmh SW 16.1 mph25.9 kmh 29.98 in1015.2 mb - 0.00 in0.0 mm 0.03 in0.8 mm
02:30 AM 60.0°F15.6°C 59.1°F15.1°C 97% 9.2 mph SSW14.8 kmh SSW 15.0 mph24.1 kmh 29.98 in1015.2 mb - 0.00 in0.0 mm 0.03 in0.8 mm
02:20 AM 60.1°F15.6°C 59.3°F15.2°C 97% 9.2 mph SSW14.8 kmh SSW 15.0 mph24.1 kmh 29.98 in1015.2 mb - 0.00 in0.0 mm 0.03 in0.8 mm
02:10 AM 60.3°F15.7°C 59.4°F15.2°C 97% 6.9 mph SSW11.1 kmh SSW 12.7 mph20.4 kmh 29.99 in1015.6 mb - 0.00 in0.0 mm 0.03 in0.8 mm
02:00 AM 60.4°F15.8°C 59.5°F15.3°C 97% 12.7 mph SSW20.4 kmh SSW 19.6 mph31.5 kmh 30.00 in1015.9 mb - 0.00 in0.0 mm 0.03 in0.8 mm
01:50 AM 60.6°F15.9°C 59.7°F15.4°C 97% 8.1 mph SSW13.0 kmh SSW 11.5 mph18.5 kmh 30.00 in1015.9 mb - 0.00 in0.0 mm 0.03 in0.8 mm
01:40 AM 60.7°F15.9°C 59.8°F15.4°C 97% 10.4 mph SW16.7 kmh SW 13.8 mph22.2 kmh 30.00 in1015.9 mb - 0.00 in0.0 mm 0.03 in0.8 mm
01:30 AM 60.7°F15.9°C 59.8°F15.4°C 97% 9.2 mph S14.8 kmh S 13.8 mph22.2 kmh 30.01 in1016.3 mb - 0.00 in0.0 mm 0.03 in0.8 mm
01:20 AM 60.9°F16.1°C 60.0°F15.6°C 97% 10.4 mph SW16.7 kmh SW 13.8 mph22.2 kmh 30.01 in1016.3 mb - 0.00 in0.0 mm 0.03 in0.8 mm
01:10 AM 60.9°F16.1°C 60.0°F15.6°C 97% 8.1 mph SW13.0 kmh SW 11.5 mph18.5 kmh 30.01 in1016.3 mb - 0.00 in0.0 mm 0.03 in0.8 mm
01:00 AM 61.0°F16.1°C 60.1°F15.6°C 97% 8.1 mph WSW13.0 kmh WSW 11.5 mph18.5 kmh 30.01 in1016.3 mb - 0.01 in0.3 mm 0.03 in0.8 mm
12:50 AM 60.9°F16.1°C 60.0°F15.6°C 97% 6.9 mph SSW11.1 kmh SSW 11.5 mph18.5 kmh 30.01 in1016.3 mb - 0.00 in0.0 mm 0.02 in0.5 mm
12:40 AM 60.9°F16.1°C 60.0°F15.6°C 97% 5.8 mph SSW9.3 kmh SSW 8.1 mph13.0 kmh 30.01 in1016.3 mb - 0.00 in0.0 mm 0.02 in0.5 mm
12:30 AM 60.8°F16.0°C 59.9°F15.5°C 97% 5.8 mph SW9.3 kmh SW 8.1 mph13.0 kmh 30.01 in1016.3 mb - 0.00 in0.0 mm 0.02 in0.5 mm
12:20 AM 60.5°F15.8°C 59.6°F15.3°C 97% 5.8 mph S9.3 kmh S 8.1 mph13.0 kmh 30.02 in1016.6 mb - 0.00 in0.0 mm 0.02 in0.5 mm
12:10 AM 60.5°F15.8°C 59.6°F15.3°C 97% 6.9 mph SSW11.1 kmh SSW 9.2 mph14.8 kmh 30.02 in1016.6 mb - 0.00 in0.0 mm 0.02 in0.5 mm
12:00 AM 60.6°F15.9°C 59.7°F15.4°C 97% 5.8 mph S9.3 kmh S 8.1 mph13.0 kmh 30.02 in1016.6 mb - 0.00 in0.0 mm 0.02 in0.5 mm